createdAt,value
2022-11-18T00:01:20.318Z,7.03
2022-11-18T00:03:48.475Z,7.10
2022-11-18T00:06:18.931Z,7.03
2022-11-18T00:08:46.471Z,7.03
2022-11-18T00:11:37.792Z,7.28
2022-11-18T00:14:19.367Z,6.85
2022-11-18T00:16:57.733Z,7.85
2022-11-18T00:19:28.113Z,7.88
2022-11-18T00:21:56.200Z,7.72
2022-11-18T00:24:24.149Z,7.43
2022-11-18T00:26:52.091Z,7.03
2022-11-18T00:29:20.178Z,6.90
2022-11-18T00:31:48.196Z,7.55
2022-11-18T00:34:17.745Z,6.35
2022-11-18T00:36:45.787Z,7.22
2022-11-18T00:39:15.373Z,7.28
2022-11-18T00:42:02.437Z,7.28
2022-11-18T00:44:30.002Z,6.55
2022-11-18T00:46:57.563Z,7.57
2022-11-18T00:49:25.044Z,6.68
2022-11-18T00:51:52.651Z,6.50
2022-11-18T00:54:20.499Z,6.00
2022-11-18T00:56:47.896Z,6.28
2022-11-18T00:59:15.646Z,6.63
2022-11-18T01:01:43.596Z,6.47
2022-11-18T01:04:11.209Z,6.53
2022-11-18T01:06:38.645Z,7.13
2022-11-18T01:09:06.127Z,6.97
2022-11-18T01:11:51.847Z,6.80
2022-11-18T01:14:19.747Z,6.10
2022-11-18T01:16:51.403Z,6.05
2022-11-18T01:19:19.737Z,5.30
2022-11-18T01:21:47.257Z,6.63
2022-11-18T01:24:14.883Z,6.72
2022-11-18T01:26:42.746Z,6.28
2022-11-18T01:29:10.458Z,6.15
2022-11-18T01:31:50.178Z,5.85
2022-11-18T01:34:29.285Z,6.65
2022-11-18T01:36:58.226Z,5.78
2022-11-18T01:39:26.022Z,6.65
2022-11-18T01:41:53.817Z,6.15
2022-11-18T01:45:14.539Z,6.80
2022-11-18T01:47:49.898Z,6.35
2022-11-18T01:50:19.842Z,6.20
2022-11-18T01:52:51.656Z,6.93
2022-11-18T01:55:29.107Z,6.22
2022-11-18T01:58:06.360Z,6.38
2022-11-18T02:00:34.437Z,5.82
2022-11-18T02:03:02.765Z,6.47
2022-11-18T02:05:31.604Z,6.50
2022-11-18T02:08:01.386Z,5.65
2022-11-18T02:10:28.988Z,6.10
2022-11-18T02:12:57.253Z,6.07
2022-11-18T02:15:35.961Z,6.43
2022-11-18T02:18:15.310Z,6.18
2022-11-18T02:20:45.807Z,6.82
2022-11-18T02:23:47.368Z,6.65
2022-11-18T02:26:47.093Z,6.13
2022-11-18T02:29:38.023Z,7.03
2022-11-18T02:32:13.339Z,6.90
2022-11-18T02:34:53.381Z,7.32
2022-11-18T02:37:54.991Z,7.17
2022-11-18T02:40:40.107Z,6.68
2022-11-18T02:43:32.986Z,7.10
2022-11-18T02:46:06.582Z,7.13
2022-11-18T02:48:39.545Z,7.25
2022-11-18T02:51:09.974Z,7.50
2022-11-18T02:53:40.313Z,6.95
2022-11-18T02:56:09.628Z,6.43
2022-11-18T02:58:37.065Z,6.88
2022-11-18T03:01:04.530Z,7.88
2022-11-18T03:03:34.544Z,7.85
2022-11-18T03:06:15.276Z,8.32
2022-11-18T03:09:18.414Z,7.07
2022-11-18T03:12:02.586Z,7.93
2022-11-18T03:14:37.216Z,8.13
2022-11-18T03:17:12.618Z,7.03
2022-11-18T03:19:51.968Z,8.27
2022-11-18T03:22:39.478Z,7.00
2022-11-18T03:25:10.492Z,7.35
2022-11-18T03:28:12.998Z,7.43
2022-11-18T03:30:51.001Z,7.45
2022-11-18T03:33:24.824Z,6.68
2022-11-18T03:35:53.930Z,7.10
2022-11-18T03:38:29.361Z,7.80
2022-11-18T03:41:01.535Z,7.28
2022-11-18T03:43:34.718Z,7.10
2022-11-18T03:46:11.019Z,7.07
2022-11-18T03:48:59.425Z,8.05
2022-11-18T03:51:33.991Z,7.47
2022-11-18T03:54:11.987Z,7.30
2022-11-18T03:56:45.678Z,6.72
2022-11-18T03:59:20.086Z,7.47
2022-11-18T04:01:51.774Z,6.88
2022-11-18T04:04:20.083Z,6.90
2022-11-18T04:07:22.821Z,7.30
2022-11-18T04:10:01.730Z,7.05
2022-11-18T04:12:33.351Z,7.03
2022-11-18T04:15:01.383Z,7.03
2022-11-18T04:17:29.312Z,6.43
2022-11-18T04:19:56.878Z,6.90
2022-11-18T04:22:24.278Z,7.32
2022-11-18T04:24:51.636Z,7.45
2022-11-18T04:27:19.114Z,7.93
2022-11-18T04:29:46.512Z,7.47
2022-11-18T04:32:13.983Z,8.02
2022-11-18T04:34:41.454Z,7.65
2022-11-18T04:37:08.873Z,6.85
2022-11-18T04:39:36.406Z,7.22
2022-11-18T04:42:03.949Z,7.45
2022-11-18T04:44:33.239Z,7.90
2022-11-18T04:47:02.922Z,7.43
2022-11-18T04:49:30.666Z,8.30
2022-11-18T04:51:58.647Z,7.22
2022-11-18T04:54:26.805Z,7.10
2022-11-18T04:56:55.284Z,7.28
2022-11-18T04:59:25.218Z,7.57
2022-11-18T05:01:53.539Z,6.63
2022-11-18T05:04:27.355Z,5.45
2022-11-18T05:06:54.837Z,6.40
2022-11-18T05:09:27.244Z,5.43
2022-11-18T05:12:16.567Z,5.82
2022-11-18T05:14:49.347Z,5.82
2022-11-18T05:17:18.528Z,5.55
2022-11-18T05:19:45.954Z,6.60
2022-11-18T05:22:15.585Z,5.80
2022-11-18T05:24:43.181Z,5.68
2022-11-18T05:27:11.260Z,5.45
2022-11-18T05:29:38.816Z,5.75
2022-11-18T05:32:06.352Z,7.15
2022-11-18T05:34:33.711Z,6.13
2022-11-18T05:37:01.041Z,7.38
2022-11-18T05:39:28.516Z,6.70
2022-11-18T05:42:14.423Z,7.38
2022-11-18T05:44:41.911Z,11.98
2022-11-18T05:47:09.340Z,6.75
2022-11-18T05:49:36.879Z,6.43
2022-11-18T05:52:04.865Z,6.60
2022-11-18T05:54:32.733Z,5.85
2022-11-18T05:57:00.154Z,5.82
2022-11-18T05:59:27.581Z,5.72
2022-11-18T06:02:03.903Z,6.47
2022-11-18T06:04:31.403Z,5.45
2022-11-18T06:07:15.523Z,6.53
2022-11-18T06:09:46.675Z,6.03
2022-11-18T06:12:18.907Z,6.50
2022-11-18T06:15:02.702Z,6.80
2022-11-18T06:17:43.699Z,6.70
2022-11-18T06:22:43.490Z,7.18
2022-11-18T06:25:14.159Z,7.13
2022-11-18T06:27:42.535Z,6.53
2022-11-18T06:30:10.776Z,7.00
2022-11-18T06:32:38.532Z,7.90
2022-11-18T06:35:06.666Z,7.82
2022-11-18T06:37:34.602Z,7.40
2022-11-18T06:40:03.504Z,6.60
2022-11-18T06:42:49.574Z,6.50
2022-11-18T06:45:17.051Z,6.78
2022-11-18T06:47:44.611Z,6.30
2022-11-18T06:50:12.119Z,6.97
2022-11-18T06:52:39.678Z,6.35
2022-11-18T06:55:08.446Z,6.32
2022-11-18T06:57:35.928Z,5.72
2022-11-18T07:00:04.462Z,6.07
2022-11-18T07:02:32.017Z,6.40
2022-11-18T07:04:59.479Z,6.03
2022-11-18T07:07:26.999Z,7.20
2022-11-18T07:09:54.612Z,6.47
2022-11-18T07:12:22.189Z,5.63
2022-11-18T07:14:49.637Z,6.78
2022-11-18T07:17:17.105Z,5.45
2022-11-18T07:19:44.705Z,6.22
2022-11-18T07:22:12.189Z,6.65
2022-11-18T07:24:41.075Z,7.20
2022-11-18T07:27:09.025Z,6.05
2022-11-18T07:29:36.554Z,6.38
2022-11-18T07:32:04.279Z,6.47
2022-11-18T07:34:31.741Z,7.50
2022-11-18T07:36:59.165Z,6.25
2022-11-18T07:39:26.534Z,5.43
2022-11-18T07:41:53.931Z,5.95
2022-11-18T07:44:21.302Z,6.15
2022-11-18T07:46:48.633Z,6.32
2022-11-18T07:49:16.321Z,7.00
2022-11-18T07:51:43.995Z,7.75
2022-11-18T07:54:13.948Z,6.53
2022-11-18T07:56:41.509Z,6.90
2022-11-18T07:59:09.214Z,6.18
2022-11-18T08:01:37.007Z,6.13
2022-11-18T08:04:06.914Z,5.97
2022-11-18T08:06:35.565Z,5.40
2022-11-18T08:09:04.252Z,5.95
2022-11-18T08:11:31.945Z,5.20
2022-11-18T08:13:59.493Z,5.72
2022-11-18T08:16:27.182Z,5.28
2022-11-18T08:18:55.018Z,6.60
2022-11-18T08:21:23.528Z,6.75
2022-11-18T08:23:56.822Z,5.97
2022-11-18T08:26:25.220Z,5.38
2022-11-18T08:28:53.277Z,6.07
2022-11-18T08:31:26.478Z,7.32
2022-11-18T08:34:00.846Z,6.88
2022-11-18T08:36:30.709Z,6.45
2022-11-18T08:38:59.885Z,6.10
2022-11-18T08:41:39.754Z,6.63
2022-11-18T08:44:09.663Z,6.90
2022-11-18T08:46:37.057Z,6.78
2022-11-18T08:49:04.720Z,6.22
2022-11-18T08:51:32.176Z,6.78
2022-11-18T08:53:59.741Z,6.28
2022-11-18T08:56:27.267Z,5.65
2022-11-18T08:58:54.704Z,6.03
2022-11-18T09:01:22.455Z,5.55
2022-11-18T09:03:50.446Z,6.63
2022-11-18T09:06:20.372Z,6.90
2022-11-18T09:08:47.913Z,7.10
2022-11-18T09:11:17.907Z,7.95
2022-11-18T09:15:06.364Z,8.00
2022-11-18T09:16:34.864Z,8.00
2022-11-18T09:21:50.038Z,8.27
2022-11-18T09:24:18.024Z,8.77
2022-11-18T09:26:45.830Z,7.72
2022-11-18T09:29:13.283Z,7.90
2022-11-18T09:31:40.766Z,9.13
2022-11-18T09:34:10.562Z,9.20
2022-11-18T09:36:38.046Z,8.25
2022-11-18T09:39:05.585Z,9.55
2022-11-18T09:41:33.098Z,8.38
2022-11-18T09:44:12.845Z,13.70
2022-11-18T09:47:17.639Z,8.82
2022-11-18T09:49:46.359Z,6.97
2022-11-18T09:52:21.998Z,7.30
2022-11-18T09:54:50.419Z,6.53
2022-11-18T09:57:21.076Z,7.40
2022-11-18T09:59:48.597Z,5.88
2022-11-18T10:02:21.822Z,6.55
2022-11-18T10:04:49.241Z,6.05
2022-11-18T10:07:22.239Z,6.10
2022-11-18T10:09:54.702Z,5.68
2022-11-18T10:12:51.381Z,5.55
2022-11-18T10:15:22.080Z,6.25
2022-11-18T10:18:01.198Z,6.75
2022-11-18T10:21:00.425Z,7.30
2022-11-18T10:23:44.964Z,6.95
2022-11-18T10:26:13.159Z,6.50
2022-11-18T10:28:40.663Z,6.32
2022-11-18T10:31:10.927Z,6.28
2022-11-18T10:33:39.258Z,6.43
2022-11-18T10:36:19.290Z,5.90
2022-11-18T10:38:50.223Z,5.93
2022-11-18T10:41:20.765Z,5.80
2022-11-18T10:43:52.049Z,7.13
2022-11-18T10:46:29.274Z,6.35
2022-11-18T10:49:08.751Z,6.70
2022-11-18T10:51:44.977Z,6.45
2022-11-18T10:54:20.088Z,6.93
2022-11-18T10:56:58.083Z,6.97
2022-11-18T10:59:36.282Z,6.28
2022-11-18T11:02:12.674Z,6.82
2022-11-18T11:04:41.572Z,6.43
2022-11-18T11:07:25.534Z,6.22
2022-11-18T11:10:05.212Z,6.10
2022-11-18T11:12:35.036Z,6.38
2022-11-18T11:15:18.717Z,6.32
2022-11-18T11:18:16.153Z,6.43
2022-11-18T11:20:43.595Z,6.03
2022-11-18T11:23:12.911Z,6.38
2022-11-18T11:28:45.706Z,6.43
2022-11-18T11:31:27.868Z,6.60
2022-11-18T11:34:05.481Z,7.20
2022-11-18T11:37:14.636Z,7.38
2022-11-18T11:40:00.232Z,8.48
2022-11-18T11:42:48.799Z,7.88
2022-11-18T11:45:30.240Z,8.57
2022-11-18T11:48:34.118Z,8.85
2022-11-18T11:51:18.313Z,8.55
2022-11-18T11:54:05.369Z,7.88
2022-11-18T11:56:42.285Z,8.30
2022-11-18T11:59:18.891Z,7.70
2022-11-18T12:01:49.125Z,7.57
2022-11-18T12:04:25.225Z,7.43
2022-11-18T12:06:54.974Z,6.82
2022-11-18T12:09:34.291Z,7.15
2022-11-18T12:12:38.391Z,8.48
2022-11-18T12:15:15.765Z,7.65
2022-11-18T12:18:18.668Z,8.30
2022-11-18T12:20:48.980Z,9.02
2022-11-18T12:23:21.097Z,7.88
2022-11-18T12:25:48.500Z,7.13
2022-11-18T12:28:34.734Z,7.57
2022-11-18T12:31:23.151Z,6.30
2022-11-18T12:34:04.348Z,6.90
2022-11-18T12:36:37.119Z,7.10
2022-11-18T12:39:25.889Z,7.00
2022-11-18T12:42:16.917Z,7.35
2022-11-18T12:47:14.801Z,6.85
2022-11-18T12:49:45.125Z,7.07
2022-11-18T12:52:30.418Z,7.65
2022-11-18T12:55:03.683Z,6.88
2022-11-18T12:57:34.971Z,6.72
2022-11-18T13:00:23.575Z,8.23
2022-11-18T13:02:59.033Z,7.88
2022-11-18T13:05:29.198Z,8.52
2022-11-18T13:08:16.197Z,9.18
2022-11-18T13:10:43.618Z,10.10
2022-11-18T13:13:30.793Z,9.45
2022-11-18T13:16:39.956Z,9.18
2022-11-18T13:19:07.612Z,8.13
2022-11-18T13:21:53.738Z,7.95
2022-11-18T13:24:22.767Z,8.77
2022-11-18T13:26:59.581Z,8.23
2022-11-18T13:29:54.116Z,7.82
2022-11-18T13:32:29.027Z,8.50
2022-11-18T13:35:15.753Z,8.52
2022-11-18T13:37:53.237Z,8.55
2022-11-18T13:40:23.301Z,10.27
2022-11-18T13:42:50.870Z,10.63
2022-11-18T13:45:19.156Z,11.75
2022-11-18T13:47:49.014Z,10.55
2022-11-18T13:50:20.956Z,9.40
2022-11-18T13:53:02.142Z,8.52
2022-11-18T13:55:34.574Z,8.35
2022-11-18T13:58:30.792Z,8.95
2022-11-18T14:01:05.853Z,8.73
2022-11-18T14:03:48.514Z,9.25
2022-11-18T14:06:28.017Z,8.60
2022-11-18T14:09:22.790Z,8.98
2022-11-18T14:15:20.677Z,9.65
2022-11-18T14:17:59.249Z,8.80
2022-11-18T14:20:28.978Z,8.77
2022-11-18T14:23:00.319Z,9.55
2022-11-18T14:25:34.396Z,8.68
2022-11-18T14:28:20.650Z,8.82
2022-11-18T14:31:18.749Z,8.60
2022-11-18T14:34:23.691Z,8.27
2022-11-18T14:36:52.071Z,9.10
2022-11-18T14:39:31.628Z,8.98
2022-11-18T14:41:59.859Z,9.27
2022-11-18T14:44:28.446Z,8.90
2022-11-18T14:46:59.484Z,9.25
2022-11-18T14:49:28.365Z,9.05
2022-11-18T14:51:55.881Z,8.88
2022-11-18T14:54:26.881Z,9.15
2022-11-18T14:57:01.630Z,10.68
2022-11-18T14:59:29.524Z,9.65
2022-11-18T15:01:57.309Z,10.57
2022-11-18T15:04:25.341Z,11.15
2022-11-18T15:06:53.127Z,10.50
2022-11-18T15:09:20.836Z,9.48
2022-11-18T15:11:48.143Z,9.55
2022-11-18T15:14:15.844Z,10.60
2022-11-18T15:16:43.418Z,9.20
2022-11-18T15:19:15.520Z,9.27
2022-11-18T15:21:43.869Z,10.13
2022-11-18T15:24:11.290Z,9.50
2022-11-18T15:26:44.532Z,10.05
2022-11-18T15:29:22.984Z,10.68
2022-11-18T15:31:51.446Z,10.18
2022-11-18T15:34:21.655Z,9.40
2022-11-18T15:36:49.845Z,9.88
2022-11-18T15:39:17.361Z,10.20
2022-11-18T15:41:44.849Z,10.82
2022-11-18T15:44:12.398Z,9.80
2022-11-18T15:46:40.457Z,10.80
2022-11-18T15:49:13.220Z,10.85
2022-11-18T15:51:40.953Z,9.70
2022-11-18T15:54:08.533Z,10.00
2022-11-18T15:56:36.781Z,9.65
2022-11-18T15:59:12.716Z,10.38
2022-11-18T16:01:49.247Z,10.85
2022-11-18T16:04:19.189Z,9.35
2022-11-18T16:06:46.853Z,10.25
2022-11-18T16:09:16.128Z,10.98
2022-11-18T16:12:02.184Z,10.35
2022-11-18T16:14:29.703Z,10.38
2022-11-18T16:16:57.755Z,10.18
2022-11-18T16:19:26.956Z,10.70
2022-11-18T16:21:57.047Z,11.15
2022-11-18T16:24:27.073Z,9.93
2022-11-18T16:26:54.926Z,10.93
2022-11-18T16:29:23.572Z,9.82
2022-11-18T16:31:53.009Z,10.82
2022-11-18T16:34:26.062Z,9.57
2022-11-18T16:36:59.786Z,8.27
2022-11-18T16:39:28.504Z,10.35
2022-11-18T16:42:06.447Z,10.20
2022-11-18T16:44:35.230Z,9.38
2022-11-18T16:47:05.310Z,10.80
2022-11-18T16:49:35.142Z,11.80
2022-11-18T16:52:02.640Z,11.48
2022-11-18T16:54:32.046Z,11.23
2022-11-18T16:57:00.141Z,9.52
2022-11-18T16:59:30.622Z,11.23
2022-11-18T17:02:00.378Z,10.77
2022-11-18T17:04:31.086Z,10.38
2022-11-18T17:07:00.195Z,10.88
2022-11-18T17:09:28.196Z,10.75
2022-11-18T17:11:56.781Z,9.93
2022-11-18T17:14:25.061Z,9.98
2022-11-18T17:16:53.349Z,10.60
2022-11-18T17:19:22.958Z,10.25
2022-11-18T17:21:51.789Z,12.63
2022-11-18T17:24:22.240Z,11.00
2022-11-18T17:26:50.775Z,12.13
2022-11-18T17:29:18.951Z,12.45
2022-11-18T17:31:46.679Z,11.30
2022-11-18T17:34:15.079Z,11.93
2022-11-18T17:36:42.713Z,13.25
2022-11-18T17:39:11.839Z,11.93
2022-11-18T17:41:59.848Z,11.07
2022-11-18T17:44:27.680Z,11.82
2022-11-18T17:46:55.097Z,10.63
2022-11-18T17:49:22.603Z,13.57
2022-11-18T17:51:52.022Z,11.23
2022-11-18T17:54:21.115Z,10.98
2022-11-18T17:56:56.691Z,10.52
2022-11-18T17:59:25.592Z,9.90
2022-11-18T18:01:58.970Z,10.35
2022-11-18T18:04:26.953Z,11.52
2022-11-18T18:06:55.187Z,10.48
2022-11-18T18:09:26.895Z,10.40
2022-11-18T18:11:59.105Z,10.48
2022-11-18T18:14:26.504Z,10.65
2022-11-18T18:16:54.397Z,11.45
2022-11-18T18:19:23.487Z,11.85
2022-11-18T18:21:51.171Z,10.98
2022-11-18T18:24:21.013Z,10.88
2022-11-18T18:26:49.221Z,11.32
2022-11-18T18:29:16.646Z,11.25
2022-11-18T18:31:43.987Z,10.35
2022-11-18T18:34:11.703Z,10.93
2022-11-18T18:36:39.072Z,10.80
2022-11-18T18:39:06.529Z,10.65
2022-11-18T18:41:33.995Z,10.38
2022-11-18T18:44:01.793Z,10.38
2022-11-18T18:46:30.656Z,10.30
2022-11-18T18:49:05.872Z,9.30
2022-11-18T18:51:40.086Z,10.25
2022-11-18T18:54:09.792Z,10.43
2022-11-18T18:56:38.753Z,9.60
2022-11-18T18:59:06.928Z,10.60
2022-11-18T19:01:34.697Z,10.13
2022-11-18T19:04:05.160Z,10.48
2022-11-18T19:06:58.165Z,10.93
2022-11-18T19:09:22.837Z,10.23
2022-11-18T19:12:09.905Z,9.45
2022-11-18T19:14:37.747Z,10.27
2022-11-18T19:17:10.694Z,9.93
2022-11-18T19:20:00.786Z,9.85
2022-11-18T19:22:33.028Z,9.43
2022-11-18T19:25:01.367Z,8.90
2022-11-18T19:27:29.651Z,9.95
2022-11-18T19:29:57.243Z,9.45
2022-11-18T19:32:24.718Z,9.77
2022-11-18T19:34:52.180Z,10.63
2022-11-18T19:37:19.719Z,10.25
2022-11-18T19:39:47.211Z,9.57
2022-11-18T19:42:14.716Z,10.02
2022-11-18T19:44:42.102Z,9.55
2022-11-18T19:47:09.466Z,9.70
2022-11-18T19:49:36.879Z,10.02
2022-11-18T19:52:04.330Z,11.85
2022-11-18T19:54:31.764Z,11.35
2022-11-18T19:56:59.931Z,10.05
2022-11-18T19:59:27.490Z,10.93
2022-11-18T20:01:54.930Z,9.00
2022-11-18T20:04:22.762Z,9.13
2022-11-18T20:06:50.344Z,10.18
2022-11-18T20:09:18.606Z,8.70
2022-11-18T20:11:46.129Z,9.00
2022-11-18T20:14:14.106Z,9.48
2022-11-18T20:16:41.926Z,8.90
2022-11-18T20:19:13.725Z,10.00
2022-11-18T20:21:43.504Z,10.15
2022-11-18T20:24:16.051Z,9.07
2022-11-18T20:26:44.470Z,9.50
2022-11-18T20:29:12.060Z,10.50
2022-11-18T20:31:39.600Z,9.95
2022-11-18T20:34:07.227Z,10.25
2022-11-18T20:36:36.396Z,9.63
2022-11-18T20:39:07.496Z,12.48
2022-11-18T20:41:36.535Z,10.20
2022-11-18T20:44:04.520Z,9.27
2022-11-18T20:46:33.434Z,8.23
2022-11-18T20:49:01.703Z,10.52
2022-11-18T20:51:29.543Z,10.48
2022-11-18T20:53:58.620Z,10.20
2022-11-18T20:56:27.893Z,9.80
2022-11-18T20:58:57.255Z,10.43
2022-11-18T21:01:27.127Z,10.10
2022-11-18T21:03:59.379Z,10.27
2022-11-18T21:06:29.438Z,9.10
2022-11-18T21:09:02.637Z,9.88
2022-11-18T21:11:30.572Z,9.73
2022-11-18T21:14:22.904Z,8.90
2022-11-18T21:16:53.928Z,9.18
2022-11-18T21:19:22.479Z,9.55
2022-11-18T21:21:53.557Z,9.40
2022-11-18T21:24:32.483Z,9.23
2022-11-18T21:27:01.312Z,9.52
2022-11-18T21:29:30.896Z,9.55
2022-11-18T21:32:02.661Z,9.13
2022-11-18T21:34:30.446Z,9.77
2022-11-18T21:36:58.357Z,10.00
2022-11-18T21:39:26.542Z,10.18
2022-11-18T21:41:56.736Z,10.07
2022-11-18T21:46:54.309Z,9.82
2022-11-18T21:49:23.277Z,9.57
2022-11-18T21:51:51.169Z,9.80
2022-11-18T21:54:18.711Z,9.02
2022-11-18T21:56:46.209Z,10.35
2022-11-18T21:59:14.121Z,9.68
2022-11-18T22:01:41.562Z,10.70
2022-11-18T22:04:28.914Z,9.57
2022-11-18T22:06:56.390Z,9.60
2022-11-18T22:09:23.776Z,9.75
2022-11-18T22:11:51.148Z,10.60
2022-11-18T22:14:18.473Z,10.18
2022-11-18T22:16:45.912Z,10.27
2022-11-18T22:19:13.296Z,9.82
2022-11-18T22:21:40.700Z,9.43
2022-11-18T22:24:08.661Z,10.70
2022-11-18T22:26:36.213Z,10.02
2022-11-18T22:29:03.811Z,11.23
2022-11-18T22:31:31.242Z,9.63
2022-11-18T22:33:58.634Z,8.63
2022-11-18T22:36:27.625Z,10.27
2022-11-18T22:38:55.588Z,11.07
2022-11-18T22:41:43.761Z,11.30
2022-11-18T22:44:12.404Z,11.57
2022-11-18T22:46:41.197Z,11.10
2022-11-18T22:49:10.308Z,10.73
2022-11-18T22:51:38.677Z,10.75
2022-11-18T22:56:55.073Z,11.25
2022-11-18T22:59:22.807Z,9.85
2022-11-18T23:01:53.494Z,11.88
2022-11-18T23:04:20.924Z,11.60
2022-11-18T23:06:49.597Z,11.38
2022-11-18T23:09:17.473Z,10.05
2022-11-18T23:12:03.621Z,10.80
2022-11-18T23:14:31.596Z,11.05
2022-11-18T23:16:59.504Z,11.00
2022-11-18T23:19:26.918Z,11.02
2022-11-18T23:21:54.342Z,9.95
2022-11-18T23:24:22.022Z,10.05
2022-11-18T23:26:49.580Z,9.98
2022-11-18T23:29:18.743Z,10.25
2022-11-18T23:31:46.624Z,10.38
2022-11-18T23:34:15.866Z,10.25
2022-11-18T23:36:43.646Z,8.90
2022-11-18T23:39:11.746Z,9.55
2022-11-18T23:41:39.629Z,8.75
2022-11-18T23:44:07.422Z,9.77
2022-11-18T23:46:34.973Z,10.25
2022-11-18T23:49:02.622Z,9.77
2022-11-18T23:51:30.194Z,9.52
2022-11-18T23:53:58.131Z,10.57
2022-11-18T23:56:27.554Z,9.25
2022-11-18T23:58:56.955Z,9.23
